SBJP/JPA METAR and TAF weather

Enter ICAO airport designator
Station Type Date Time Source
SBJP METAR 2019/04/22 18:00 UTC NOAA

SBJP 221800Z 15011KT 9999 SCT030 29/24 Q1010


Station Type Date Time Source
SBJP Decoded METAR 2019/04/22 18:00 UTC NOAA

Joao Pessoa, Brazil (SBJP) 07-06S 034-52W
Apr 22, 2019 - 02:00 PM EDT / 2019.04.22 1800 UTC
Wind: from the SSE (150 degrees) at 13 MPH (11 KT):0
Visibility: greater than 7 mile(s):0
Sky conditions: partly cloudy
Temperature: 84 F (29 C)
Dew Point: 75 F (24 C)
Relative Humidity: 74%
Pressure (altimeter): 29.83 in. Hg (1010 hPa)
ob: SBJP 221800Z 15011KT 9999 SCT030 29/24 Q1010
cycle: 18

Station Type Date Time Source
SBJP TAF 2019/04/22 18:42 UTC NOAA

TAF TAF SBJP 221600Z 2218/2318 13004KT 9999 SCT020 FEW025TCU TN24/2307Z T X31/2316Z
BECMG 2221/2223 16003KT SCT020
RMK PEQ

Example: see airport list